createdAt,value
2022-10-19T00:01:03.540Z,16.56
2022-10-19T00:03:34.859Z,16.42
2022-10-19T00:06:16.129Z,16.67
2022-10-19T00:08:46.562Z,16.45
2022-10-19T00:11:16.418Z,16.56
2022-10-19T00:13:45.868Z,16.50
2022-10-19T00:16:17.862Z,16.36
2022-10-19T00:18:47.560Z,16.24
2022-10-19T00:21:19.549Z,16.96
2022-10-19T00:23:49.975Z,16.46
2022-10-19T00:26:20.120Z,16.48
2022-10-19T00:28:49.658Z,16.29
2022-10-19T00:31:20.206Z,16.16
2022-10-19T00:33:50.263Z,15.92
2022-10-19T00:36:25.363Z,16.00
2022-10-19T00:38:55.966Z,15.95
2022-10-19T00:41:28.300Z,15.91
2022-10-19T00:44:01.071Z,16.09
2022-10-19T00:46:33.708Z,16.23
2022-10-19T00:49:09.865Z,16.28
2022-10-19T00:51:45.625Z,16.14
2022-10-19T00:54:17.107Z,16.04
2022-10-19T00:56:49.300Z,15.96
2022-10-19T00:59:22.381Z,15.88
2022-10-19T01:01:53.797Z,15.64
2022-10-19T01:04:25.254Z,15.65
2022-10-19T01:06:56.937Z,15.55
2022-10-19T01:09:26.616Z,15.57
2022-10-19T01:12:04.970Z,15.58
2022-10-19T01:14:48.563Z,15.74
2022-10-19T01:17:26.980Z,15.69
2022-10-19T01:20:28.635Z,16.08
2022-10-19T01:23:19.005Z,15.95
2022-10-19T01:25:57.351Z,16.10
2022-10-19T01:28:41.219Z,16.24
2022-10-19T01:31:22.288Z,16.09
2022-10-19T01:34:02.159Z,15.96
2022-10-19T01:36:37.129Z,15.87
2022-10-19T01:39:13.283Z,15.77
2022-10-19T01:41:52.238Z,15.76
2022-10-19T01:44:30.906Z,15.91
2022-10-19T01:47:06.365Z,15.60
2022-10-19T01:49:43.355Z,15.75
2022-10-19T01:52:17.469Z,15.73
2022-10-19T01:54:51.386Z,15.72
2022-10-19T01:57:41.755Z,15.75
2022-10-19T02:09:54.164Z,15.59
2022-10-19T02:12:25.796Z,15.67
2022-10-19T02:14:59.989Z,15.96
2022-10-19T02:17:35.149Z,16.04
2022-10-19T02:20:06.268Z,15.88
2022-10-19T02:22:36.419Z,15.60
2022-10-19T02:25:08.481Z,16.26
2022-10-19T02:27:42.219Z,15.69
2022-10-19T02:30:14.679Z,15.52
2022-10-19T02:32:45.475Z,15.59
2022-10-19T02:35:16.995Z,15.47
2022-10-19T02:37:47.443Z,15.60
2022-10-19T02:40:18.675Z,15.63
2022-10-19T02:42:57.904Z,15.44
2022-10-19T02:45:30.957Z,15.53
2022-10-19T02:48:04.591Z,15.51
2022-10-19T02:50:34.421Z,15.58
2022-10-19T02:53:04.627Z,15.58
2022-10-19T02:55:36.354Z,15.68
2022-10-19T02:58:06.344Z,15.68
2022-10-19T03:00:36.163Z,15.70
2022-10-19T03:03:05.753Z,16.39
2022-10-19T03:05:35.478Z,15.89
2022-10-19T03:08:05.887Z,15.78
2022-10-19T03:10:36.632Z,16.52
2022-10-19T03:13:06.551Z,16.08
2022-10-19T03:15:36.231Z,15.89
2022-10-19T03:18:06.334Z,15.96
2022-10-19T03:20:36.063Z,16.00
2022-10-19T03:23:05.593Z,16.65
2022-10-19T03:25:36.705Z,16.18
2022-10-19T03:28:06.639Z,16.08
2022-10-19T03:30:36.261Z,15.96
2022-10-19T03:33:06.387Z,15.93
2022-10-19T03:35:35.745Z,16.74
2022-10-19T03:38:06.032Z,16.00
2022-10-19T03:40:38.644Z,16.04
2022-10-19T03:43:09.622Z,16.04
2022-10-19T03:45:39.034Z,16.71
2022-10-19T03:48:09.693Z,16.15
2022-10-19T03:50:39.464Z,16.03
2022-10-19T03:53:09.800Z,16.04
2022-10-19T03:55:41.316Z,16.09
2022-10-19T03:58:11.159Z,16.14
2022-10-19T04:00:42.200Z,16.05
2022-10-19T04:03:13.168Z,15.96
2022-10-19T04:05:42.942Z,16.00
2022-10-19T04:08:12.997Z,16.05
2022-10-19T04:10:44.348Z,15.98
2022-10-19T04:13:14.743Z,16.00
2022-10-19T04:15:44.641Z,16.09
2022-10-19T04:18:15.299Z,16.11
2022-10-19T04:20:45.062Z,16.14
2022-10-19T04:26:36.413Z,16.28
2022-10-19T04:29:06.762Z,16.14
2022-10-19T04:31:36.475Z,16.14
2022-10-19T04:34:24.616Z,16.28
2022-10-19T04:37:03.739Z,16.26
2022-10-19T04:39:33.759Z,16.09
2022-10-19T04:42:05.144Z,16.83
2022-10-19T04:45:08.476Z,16.36
2022-10-19T04:47:38.321Z,16.18
2022-10-19T04:50:08.764Z,16.07
2022-10-19T04:52:38.438Z,16.14
2022-10-19T04:55:08.814Z,16.17
2022-10-19T04:57:39.561Z,16.92
2022-10-19T05:00:10.743Z,16.30
2022-10-19T05:02:44.921Z,16.33
2022-10-19T05:05:15.703Z,16.39
2022-10-19T05:07:45.621Z,16.52
2022-10-19T05:10:15.823Z,16.42
2022-10-19T05:12:46.836Z,16.53
2022-10-19T05:29:50.801Z,17.49
2022-10-19T05:32:20.757Z,17.38
2022-10-19T05:34:50.420Z,17.41
2022-10-19T05:37:21.976Z,17.45
2022-10-19T05:39:51.635Z,17.62
2022-10-19T05:42:21.186Z,18.52
2022-10-19T05:44:52.327Z,18.03
2022-10-19T05:47:22.403Z,18.09
2022-10-19T05:49:52.287Z,18.18
2022-10-19T05:52:22.248Z,18.27
2022-10-19T05:54:54.404Z,18.48
2022-10-19T05:57:24.617Z,18.61
2022-10-19T05:59:58.776Z,18.75
2022-10-19T06:02:29.136Z,18.86
2022-10-19T06:04:59.173Z,18.89
2022-10-19T06:07:29.603Z,18.97
2022-10-19T06:09:59.848Z,19.20
2022-10-19T06:12:30.231Z,19.41
2022-10-19T06:15:01.189Z,20.30
2022-10-19T06:17:33.181Z,19.87
2022-10-19T06:20:03.798Z,19.81
2022-10-19T06:22:35.216Z,19.89
2022-10-19T06:25:06.326Z,19.99
2022-10-19T06:27:38.718Z,20.13
2022-10-19T06:30:12.224Z,20.32
2022-10-19T06:32:42.770Z,20.47
2022-10-19T06:35:12.968Z,20.56
2022-10-19T06:37:43.153Z,20.67
2022-10-19T06:40:13.785Z,20.74
2022-10-19T06:42:44.558Z,20.90
2022-10-19T06:45:17.058Z,20.89
2022-10-19T06:47:50.910Z,20.99
2022-10-19T06:50:22.187Z,21.04
2022-10-19T06:52:52.431Z,21.24
2022-10-19T06:55:22.611Z,21.46
2022-10-19T06:57:53.239Z,21.65
2022-10-19T07:00:24.981Z,21.82
2022-10-19T07:02:55.401Z,21.99
2022-10-19T07:05:25.577Z,22.01
2022-10-19T07:07:56.439Z,22.37
2022-10-19T07:10:26.612Z,22.30
2022-10-19T07:12:58.515Z,22.37
2022-10-19T07:15:30.185Z,22.36
2022-10-19T07:18:01.327Z,22.52
2022-10-19T07:20:31.348Z,22.84
2022-10-19T07:23:03.324Z,23.07
2022-10-19T07:25:34.025Z,23.34
2022-10-19T07:28:04.551Z,23.38
2022-10-19T07:30:36.117Z,23.61
2022-10-19T07:33:07.252Z,23.86
2022-10-19T07:35:37.374Z,23.90
2022-10-19T07:38:08.178Z,24.11
2022-10-19T07:40:39.473Z,23.84
2022-10-19T07:43:11.915Z,24.50
2022-10-19T07:45:44.595Z,24.51
2022-10-19T07:48:14.986Z,24.36
2022-10-19T07:50:49.732Z,23.52
2022-10-19T07:53:20.520Z,23.45
2022-10-19T07:55:50.927Z,22.43
2022-10-19T07:58:21.564Z,23.04
2022-10-19T08:00:53.154Z,23.55
2022-10-19T08:06:15.425Z,23.06
2022-10-19T08:08:46.731Z,23.05
2022-10-19T08:11:18.862Z,23.35
2022-10-19T08:13:49.658Z,23.16
2022-10-19T08:16:26.776Z,23.10
2022-10-19T08:19:00.381Z,23.60
2022-10-19T08:21:32.379Z,24.64
2022-10-19T08:24:02.875Z,24.04
2022-10-19T08:26:34.942Z,23.71
2022-10-19T08:29:07.540Z,23.85
2022-10-19T08:31:39.376Z,23.81
2022-10-19T08:34:10.404Z,23.68
2022-10-19T08:39:18.233Z,24.11
2022-10-19T08:41:58.251Z,24.12
2022-10-19T08:44:58.051Z,24.95
2022-10-19T08:47:54.365Z,24.17
2022-10-19T08:50:27.967Z,22.91
2022-10-19T08:53:04.778Z,23.52
2022-10-19T08:55:51.470Z,23.72
2022-10-19T08:58:41.617Z,24.20
2022-10-19T09:01:22.597Z,24.89
2022-10-19T09:04:00.517Z,24.79
2022-10-19T09:06:39.070Z,23.46
2022-10-19T09:09:14.691Z,24.00
2022-10-19T09:11:50.446Z,24.16
2022-10-19T09:14:29.823Z,24.25
2022-10-19T09:17:05.648Z,24.35
2022-10-19T09:19:38.270Z,24.04
2022-10-19T09:22:14.600Z,24.63
2022-10-19T09:24:47.574Z,25.07
2022-10-19T09:27:23.121Z,25.34
2022-10-19T09:29:57.348Z,26.36
2022-10-19T09:32:34.015Z,27.27
2022-10-19T09:35:19.155Z,28.39
2022-10-19T09:37:52.291Z,28.53
2022-10-19T09:40:25.534Z,29.40
2022-10-19T09:42:59.212Z,31.35
2022-10-19T09:45:39.573Z,32.85
2022-10-19T09:48:19.401Z,32.34
2022-10-19T09:51:00.111Z,33.91
2022-10-19T09:53:32.284Z,32.86
2022-10-19T09:56:08.624Z,33.07
2022-10-19T09:58:48.520Z,32.67
2022-10-19T10:01:41.411Z,33.11
2022-10-19T10:04:18.628Z,32.74
2022-10-19T10:06:51.195Z,33.38
2022-10-19T10:09:26.373Z,33.36
2022-10-19T10:12:00.698Z,34.18
2022-10-19T10:14:35.101Z,34.65
2022-10-19T10:17:06.965Z,34.96
2022-10-19T10:19:37.666Z,35.66
2022-10-19T10:22:26.870Z,37.09
2022-10-19T10:24:58.371Z,37.22
2022-10-19T10:27:33.150Z,35.31
2022-10-19T10:30:08.875Z,35.10
2022-10-19T10:32:42.188Z,36.40
2022-10-19T10:35:20.614Z,36.10
2022-10-19T10:37:52.828Z,36.34
2022-10-19T10:40:28.516Z,37.23
2022-10-19T10:43:04.398Z,37.72
2022-10-19T10:45:40.549Z,37.58
2022-10-19T10:48:27.651Z,35.58
2022-10-19T10:50:59.007Z,33.76
2022-10-19T10:53:43.801Z,35.47
2022-10-19T10:56:27.342Z,34.94
2022-10-19T10:59:02.283Z,33.14
2022-10-19T11:01:37.104Z,32.43
2022-10-19T11:04:14.086Z,33.61
2022-10-19T11:06:52.618Z,35.28
2022-10-19T11:09:31.338Z,35.97
2022-10-19T11:12:05.546Z,35.46
2022-10-19T11:14:45.788Z,35.45
2022-10-19T11:17:22.099Z,34.95
2022-10-19T11:19:52.821Z,35.51
2022-10-19T11:22:30.231Z,34.82
2022-10-19T11:25:21.250Z,35.31
2022-10-19T11:28:02.949Z,36.14
2022-10-19T11:30:36.920Z,36.84
2022-10-19T11:33:18.197Z,35.69
2022-10-19T11:35:53.520Z,34.20
2022-10-19T11:38:36.833Z,36.55
2022-10-19T11:41:19.309Z,35.94
2022-10-19T11:44:05.218Z,34.96
2022-10-19T11:46:44.174Z,35.33
2022-10-19T11:49:25.000Z,35.73
2022-10-19T11:52:02.100Z,32.77
2022-10-19T11:54:46.054Z,35.06
2022-10-19T11:57:22.130Z,34.39
2022-10-19T12:00:14.440Z,34.25
2022-10-19T12:17:25.876Z,35.19
2022-10-19T12:20:01.340Z,34.16
2022-10-19T12:22:33.354Z,34.92
2022-10-19T12:25:04.138Z,34.18
2022-10-19T12:27:38.240Z,34.69
2022-10-19T12:30:14.718Z,33.47
2022-10-19T12:32:57.689Z,32.53
2022-10-19T12:35:46.391Z,30.55
2022-10-19T12:38:23.957Z,31.13
2022-10-19T12:41:02.630Z,29.95
2022-10-19T12:43:40.747Z,30.53
2022-10-19T12:46:23.093Z,29.59
2022-10-19T12:49:26.329Z,31.60
2022-10-19T12:52:00.402Z,32.24
2022-10-19T12:54:33.930Z,31.77
2022-10-19T12:57:05.636Z,31.46
2022-10-19T12:59:39.788Z,30.38
2022-10-19T13:02:28.262Z,29.43
2022-10-19T13:04:59.273Z,27.19
2022-10-19T13:07:36.654Z,25.72
2022-10-19T13:10:10.175Z,25.40
2022-10-19T13:12:47.418Z,25.00
2022-10-19T13:15:59.933Z,24.90
2022-10-19T13:19:06.905Z,23.56
2022-10-19T13:21:49.031Z,23.44
2022-10-19T13:24:32.031Z,24.08
2022-10-19T13:27:30.249Z,24.80
2022-10-19T13:30:03.873Z,24.01
2022-10-19T13:32:37.920Z,24.43
2022-10-19T13:35:37.512Z,23.73
2022-10-19T13:38:26.810Z,23.93
2022-10-19T13:41:04.693Z,24.14
2022-10-19T13:43:44.979Z,23.14
2022-10-19T13:46:17.948Z,22.62
2022-10-19T13:49:18.550Z,23.13
2022-10-19T13:52:05.406Z,22.54
2022-10-19T13:55:13.206Z,23.19
2022-10-19T13:58:04.571Z,22.98
2022-10-19T14:00:40.952Z,22.41
2022-10-19T14:03:27.825Z,23.22
2022-10-19T14:06:17.427Z,23.34
2022-10-19T14:09:22.963Z,23.99
2022-10-19T14:11:54.409Z,23.78
2022-10-19T14:14:26.767Z,23.53
2022-10-19T14:17:01.354Z,22.70
2022-10-19T14:19:42.849Z,22.88
2022-10-19T14:22:37.484Z,23.52
2022-10-19T14:25:17.809Z,23.04
2022-10-19T14:27:48.508Z,23.31
2022-10-19T14:30:28.129Z,23.40
2022-10-19T14:33:02.039Z,22.54
2022-10-19T14:35:36.106Z,22.69
2022-10-19T14:38:08.892Z,22.23
2022-10-19T14:40:41.559Z,22.60
2022-10-19T14:43:22.380Z,22.56
2022-10-19T14:46:13.502Z,22.92
2022-10-19T14:48:45.842Z,22.73
2022-10-19T14:51:31.102Z,22.68
2022-10-19T14:54:05.759Z,22.68
2022-10-19T14:56:40.806Z,22.96
2022-10-19T14:59:26.005Z,22.61
2022-10-19T15:02:02.485Z,22.39
2022-10-19T15:04:36.481Z,22.61
2022-10-19T15:07:18.779Z,22.16
2022-10-19T15:09:55.626Z,21.72
2022-10-19T15:12:30.516Z,21.19
2022-10-19T15:15:01.197Z,21.18
2022-10-19T15:17:38.322Z,21.89
2022-10-19T15:20:26.008Z,22.40
2022-10-19T15:22:57.592Z,22.64
2022-10-19T15:25:37.442Z,21.95
2022-10-19T15:31:59.880Z,21.34
2022-10-19T15:34:35.810Z,21.25
2022-10-19T15:37:20.658Z,21.56
2022-10-19T15:39:55.982Z,22.03
2022-10-19T15:42:46.436Z,22.08
2022-10-19T15:45:43.062Z,22.29
2022-10-19T15:48:31.114Z,21.72
2022-10-19T15:51:09.181Z,22.91
2022-10-19T15:53:43.089Z,22.46
2022-10-19T15:56:19.514Z,22.19
2022-10-19T15:58:51.707Z,21.99
2022-10-19T16:01:26.490Z,22.00
2022-10-19T16:03:57.117Z,21.87
2022-10-19T16:06:31.389Z,21.66
2022-10-19T16:09:02.282Z,21.85
2022-10-19T16:11:35.013Z,21.58
2022-10-19T16:14:05.398Z,20.97
2022-10-19T16:16:38.180Z,21.20
2022-10-19T16:19:08.499Z,20.50
2022-10-19T16:21:41.639Z,21.04
2022-10-19T16:24:12.094Z,20.86
2022-10-19T16:26:43.001Z,21.18
2022-10-19T16:29:13.252Z,21.12
2022-10-19T16:31:45.334Z,21.59
2022-10-19T16:34:15.921Z,21.62
2022-10-19T16:36:48.723Z,21.99
2022-10-19T16:39:19.127Z,21.91
2022-10-19T16:41:50.051Z,22.08
2022-10-19T16:44:20.440Z,21.97
2022-10-19T16:46:52.220Z,21.89
2022-10-19T16:49:22.657Z,21.89
2022-10-19T16:51:57.477Z,22.09
2022-10-19T16:54:30.182Z,22.09
2022-10-19T16:57:03.670Z,22.03
2022-10-19T16:59:36.764Z,21.87
2022-10-19T17:02:08.276Z,22.01
2022-10-19T17:04:39.424Z,22.01
2022-10-19T17:07:13.486Z,22.40
2022-10-19T17:09:44.369Z,22.10
2022-10-19T17:12:15.331Z,22.19
2022-10-19T17:14:45.539Z,21.71
2022-10-19T17:17:17.615Z,22.06
2022-10-19T17:19:49.316Z,22.19
2022-10-19T17:22:21.478Z,22.14
2022-10-19T17:24:52.817Z,22.04
2022-10-19T17:27:25.672Z,21.99
2022-10-19T17:30:00.884Z,22.05
2022-10-19T17:32:34.709Z,22.24
2022-10-19T17:35:08.777Z,22.29
2022-10-19T17:42:47.182Z,21.87
2022-10-19T17:45:18.304Z,21.89
2022-10-19T17:47:49.975Z,21.73
2022-10-19T17:50:25.762Z,21.81
2022-10-19T17:52:57.097Z,21.82
2022-10-19T17:55:30.724Z,21.79
2022-10-19T17:58:05.523Z,21.51
2022-10-19T18:00:53.296Z,21.51
2022-10-19T18:03:31.113Z,21.40
2022-10-19T18:06:10.887Z,21.79
2022-10-19T18:08:51.409Z,21.85
2022-10-19T18:11:36.824Z,21.72
2022-10-19T18:14:21.213Z,21.78
2022-10-19T18:18:11.756Z,22.33
2022-10-19T18:21:11.999Z,21.90
2022-10-19T18:23:51.716Z,21.57
2022-10-19T18:26:33.916Z,21.51
2022-10-19T18:29:26.308Z,21.78
2022-10-19T18:34:47.741Z,21.78
2022-10-19T18:37:25.471Z,22.50
2022-10-19T18:40:00.427Z,21.78
2022-10-19T18:42:43.526Z,21.76
2022-10-19T18:45:18.932Z,21.71
2022-10-19T18:47:57.116Z,21.66
2022-10-19T18:50:37.594Z,21.89
2022-10-19T18:53:27.951Z,21.91
2022-10-19T18:56:02.229Z,21.79
2022-10-19T18:58:47.021Z,21.78
2022-10-19T19:01:31.335Z,21.94
2022-10-19T19:04:12.344Z,21.83
2022-10-19T19:06:50.559Z,21.81
2022-10-19T19:09:32.636Z,21.69
2022-10-19T19:12:06.966Z,21.67
2022-10-19T19:14:42.483Z,21.63
2022-10-19T19:17:18.626Z,21.77
2022-10-19T19:19:52.318Z,21.75
2022-10-19T19:22:29.540Z,21.81
2022-10-19T19:25:06.616Z,21.78
2022-10-19T19:27:41.180Z,21.80
2022-10-19T19:30:14.292Z,21.82
2022-10-19T19:32:59.179Z,21.73
2022-10-19T19:35:40.717Z,21.67
2022-10-19T19:38:22.794Z,21.40
2022-10-19T19:41:05.892Z,21.53
2022-10-19T19:43:55.337Z,21.68
2022-10-19T19:46:38.281Z,21.63
2022-10-19T19:49:16.334Z,21.49
2022-10-19T19:51:57.496Z,21.21
2022-10-19T19:54:31.611Z,21.21
2022-10-19T19:57:03.233Z,21.34
2022-10-19T19:59:35.628Z,21.17
2022-10-19T20:02:11.624Z,20.98
2022-10-19T20:04:43.712Z,21.04
2022-10-19T20:07:16.526Z,20.82
2022-10-19T20:09:47.648Z,20.71
2022-10-19T20:12:22.848Z,20.62
2022-10-19T20:15:01.630Z,20.53
2022-10-19T20:17:37.528Z,20.56
2022-10-19T20:20:24.009Z,20.58
2022-10-19T20:23:00.628Z,21.38
2022-10-19T20:25:33.695Z,20.70
2022-10-19T20:28:08.155Z,20.54
2022-10-19T20:30:41.061Z,20.36
2022-10-19T20:33:17.970Z,20.29
2022-10-19T20:35:51.840Z,20.18
2022-10-19T20:38:28.046Z,20.15
2022-10-19T20:40:58.634Z,20.00
2022-10-19T20:43:32.782Z,19.89
2022-10-19T20:46:24.461Z,20.11
2022-10-19T20:48:56.823Z,19.72
2022-10-19T20:51:32.737Z,19.71
2022-10-19T20:54:09.318Z,19.51
2022-10-19T20:56:40.816Z,19.48
2022-10-19T20:59:14.394Z,19.61
2022-10-19T21:50:29.132Z,18.78
2022-10-19T21:52:59.186Z,18.79
2022-10-19T21:55:29.959Z,18.49
2022-10-19T21:57:59.968Z,18.36
2022-10-19T22:00:29.684Z,18.50
2022-10-19T22:02:59.118Z,18.55
2022-10-19T22:05:30.322Z,17.84
2022-10-19T22:08:00.435Z,17.77
2022-10-19T22:10:30.240Z,17.52
2022-10-19T22:13:00.450Z,17.67
2022-10-19T22:15:30.060Z,17.91
2022-10-19T22:17:59.681Z,18.65
2022-10-19T22:35:13.643Z,18.09
2022-10-19T22:37:43.439Z,18.22
2022-10-19T22:40:13.552Z,18.63
2022-10-19T22:42:43.158Z,17.81
2022-10-19T22:45:12.993Z,17.26
2022-10-19T22:47:42.798Z,16.63
2022-10-19T22:50:14.353Z,16.69
2022-10-19T22:52:43.901Z,16.81
2022-10-19T22:55:13.519Z,16.34
2022-10-19T22:57:43.099Z,16.60
2022-10-19T23:00:13.842Z,17.51
2022-10-19T23:02:43.761Z,17.06
2022-10-19T23:05:14.761Z,17.58
2022-10-19T23:07:44.423Z,16.98
2022-10-19T23:10:13.909Z,17.52
2022-10-19T23:12:43.644Z,17.47
2022-10-19T23:15:13.770Z,16.64
2022-10-19T23:17:43.834Z,17.06
2022-10-19T23:20:15.883Z,16.20
2022-10-19T23:22:45.843Z,17.02
2022-10-19T23:25:16.397Z,16.36
2022-10-19T23:27:46.290Z,16.70
2022-10-19T23:30:16.608Z,16.84
2022-10-19T23:32:46.651Z,17.12
2022-10-19T23:35:18.027Z,16.80
2022-10-19T23:37:48.163Z,16.59
2022-10-19T23:40:18.252Z,17.10
2022-10-19T23:42:47.951Z,17.11
2022-10-19T23:45:17.412Z,17.41
2022-10-19T23:47:47.263Z,16.77
2022-10-19T23:50:19.063Z,17.16
2022-10-19T23:52:48.864Z,17.53
2022-10-19T23:55:19.620Z,17.45
2022-10-19T23:57:49.560Z,17.59
